Marmaduke, Arkansas
Current Conditions -  °F | °C
As of 2:35 PM on Saturday 20 Dec 2014 (Local Time) from K4M9 Reporting Station
Haze Haze  
Wind Chill: 45°   Ceiling: NA
Heat Index: 45°   Visibility: 3mi
Dew Point: 34°   Wind: 0mph
Humidity: 66%   Direction: NA
Pressure: 30.25"   Gusts: NA
Location:  36.19°N, 90.38°W
Report Text: K4M9 202035Z AUTO 00000KT 3SM HZ 07/01 A3025 RMK AO2
Loading
Personal Weather Stations






























Interactive Weather Map New forecast layout! Learn more

10-Day Weather Forecast

Advertisements
Track Severe Weather on mobile